Time,TemperatureF,DewpointF,PressureIn,WindDirection,WindDirectionDegrees,WindSpeedMPH,WindSpeedGustMPH,Humidity,HourlyPrecipIn,Conditions,Clouds,dailyrainin,SoftwareType,DateUTC
2013-06-23 00:01:00,71.0,70.0,30.11,ESE,112,0.0,1.0,98,0.00,,,0.00,,2013-06-23 04:01:00,
2013-06-23 00:11:00,71.0,70.0,30.11,ESE,112,0.0,1.0,98,0.00,,,0.00,,2013-06-23 04:11:00,
2013-06-23 00:21:00,71.0,71.0,30.11,ESE,112,0.0,1.0,99,0.00,,,0.00,,2013-06-23 04:21:00,
2013-06-23 00:31:00,71.0,71.0,30.11,ESE,112,0.0,1.0,99,0.00,,,0.00,,2013-06-23 04:31:00,
2013-06-23 00:42:00,71.0,71.0,30.11,ESE,112,0.0,1.0,99,0.00,,,0.00,,2013-06-23 04:42:00,
2013-06-23 00:52:00,71.0,71.0,30.11,ESE,112,0.0,1.0,99,0.00,,,0.00,,2013-06-23 04:52:00,
2013-06-23 01:01:00,71.0,71.0,30.11,South,180,1.0,3.0,99,0.00,,,0.00,,2013-06-23 05:01:00,
2013-06-23 01:11:00,71.0,71.0,30.11,South,180,1.0,3.0,99,0.00,,,0.00,,2013-06-23 05:11:00,
2013-06-23 01:22:00,71.0,71.0,30.11,South,180,1.0,3.0,99,0.00,,,0.00,,2013-06-23 05:22:00,
2013-06-23 01:32:00,69.0,68.0,30.09,East,90,1.0,2.0,96,0.00,,,0.00,,2013-06-23 05:32:00,
2013-06-23 01:41:00,69.0,68.0,30.09,SE,135,2.0,4.0,96,0.00,,,0.00,,2013-06-23 05:41:00,
2013-06-23 02:02:00,69.0,68.0,30.09,East,90,2.0,3.0,96,0.00,,,0.00,,2013-06-23 06:02:00,
2013-06-23 02:12:00,69.0,68.0,30.08,SE,135,1.0,2.0,96,0.00,,,0.00,,2013-06-23 06:12:00,
2013-06-23 02:22:00,69.0,68.0,30.08,East,90,1.0,4.0,96,0.00,,,0.00,,2013-06-23 06:22:00,
2013-06-23 02:33:00,69.0,68.0,30.08,ESE,112,1.0,3.0,96,0.00,,,0.00,,2013-06-23 06:33:00,
2013-06-23 02:43:00,69.0,68.0,30.08,ESE,112,1.0,3.0,96,0.00,,,0.00,,2013-06-23 06:43:00,
2013-06-23 03:02:00,68.0,67.0,30.09,East,90,1.0,2.0,95,0.00,,,0.00,,2013-06-23 07:02:00,
2013-06-23 03:12:00,68.0,67.0,30.09,East,90,1.0,2.0,95,0.00,,,0.00,,2013-06-23 07:12:00,
2013-06-23 03:22:00,68.0,67.0,30.09,East,90,1.0,2.0,95,0.00,,,0.00,,2013-06-23 07:22:00,
2013-06-23 03:34:00,68.0,67.0,30.08,East,90,1.0,1.0,95,0.00,,,0.00,,2013-06-23 07:34:00,
2013-06-23 03:43:00,68.0,67.0,30.08,East,90,0.0,1.0,95,0.00,,,0.00,,2013-06-23 07:43:00,
2013-06-23 03:53:00,68.0,67.0,30.08,East,90,1.0,2.0,95,0.00,,,0.00,,2013-06-23 07:53:00,
2013-06-23 04:02:00,68.0,67.0,30.09,SE,135,2.0,3.0,95,0.00,,,0.00,,2013-06-23 08:02:00,
2013-06-23 04:12:00,68.0,66.0,30.09,SE,135,0.0,1.0,94,0.00,,,0.00,,2013-06-23 08:12:00,
2013-06-23 04:22:00,68.0,66.0,30.09,SE,135,0.0,0.0,94,0.00,,,0.00,,2013-06-23 08:22:00,
2013-06-23 04:34:00,67.0,66.0,30.09,SE,135,0.0,0.0,95,0.00,,,0.00,,2013-06-23 08:34:00,
2013-06-23 04:43:00,67.0,66.0,30.09,SE,135,0.0,0.0,95,0.00,,,0.00,,2013-06-23 08:43:00,
2013-06-23 05:02:00,66.0,65.0,30.10,SE,135,0.0,0.0,95,0.00,,,0.00,,2013-06-23 09:02:00,
2013-06-23 05:12:00,66.0,65.0,30.10,SE,135,0.0,0.0,95,0.00,,,0.00,,2013-06-23 09:12:00,
2013-06-23 05:34:00,66.0,65.0,30.10,SE,135,0.0,0.0,95,0.00,,,0.00,,2013-06-23 09:34:00,
2013-06-23 05:43:00,66.0,65.0,30.11,SE,135,0.0,0.0,95,0.00,,,0.00,,2013-06-23 09:43:00,
2013-06-23 05:53:00,66.0,64.0,30.11,SE,135,0.0,0.0,93,0.00,,,0.00,,2013-06-23 09:53:00,
2013-06-23 06:02:00,66.0,64.0,30.12,SE,135,0.0,1.0,94,0.00,,,0.00,,2013-06-23 10:02:00,
2013-06-23 06:11:00,65.0,64.0,30.12,SE,135,0.0,0.0,95,0.00,,,0.00,,2013-06-23 10:11:00,
2013-06-23 06:34:00,66.0,65.0,30.12,SE,135,0.0,0.0,96,0.00,,,0.00,,2013-06-23 10:34:00,
2013-06-23 06:43:00,66.0,65.0,30.13,WSW,247,0.0,0.0,97,0.00,,,0.00,,2013-06-23 10:43:00,
2013-06-23 06:53:00,66.0,65.0,30.13,WSW,247,0.0,0.0,97,0.00,,,0.00,,2013-06-23 10:53:00,
2013-06-23 07:01:00,66.0,65.0,30.12,WSW,247,0.0,0.0,95,0.00,,,0.00,,2013-06-23 11:01:00,
2013-06-23 07:11:00,66.0,64.0,30.12,South,180,0.0,2.0,93,0.00,,,0.00,,2013-06-23 11:11:00,
2013-06-23 07:22:00,66.0,64.0,30.12,South,180,0.0,2.0,93,0.00,,,0.00,,2013-06-23 11:22:00,
2013-06-23 07:33:00,66.0,64.0,30.12,South,180,0.0,2.0,93,0.00,,,0.00,,2013-06-23 11:33:00,
2013-06-23 07:43:00,68.0,66.0,30.12,SE,135,2.0,3.0,93,0.00,,,0.00,,2013-06-23 11:43:00,
2013-06-23 07:53:00,68.0,66.0,30.13,ESE,112,2.0,3.0,93,0.00,,,0.00,,2013-06-23 11:53:00,
2013-06-23 08:01:00,69.0,66.0,30.14,ESE,112,3.0,5.0,90,0.00,,,0.00,,2013-06-23 12:01:00,
2013-06-23 08:12:00,70.0,67.0,30.14,ESE,112,2.0,2.0,90,0.00,,,0.00,,2013-06-23 12:12:00,
2013-06-23 08:33:00,73.0,71.0,30.15,South,180,2.0,4.0,92,0.00,,,0.00,,2013-06-23 12:33:00,
2013-06-23 08:42:00,73.0,71.0,30.16,South,180,4.0,5.0,94,0.00,,,0.00,,2013-06-23 12:42:00,
2013-06-23 08:53:00,74.0,73.0,30.16,SE,135,1.0,2.0,96,0.00,,,0.00,,2013-06-23 12:53:00,
2013-06-23 09:02:00,76.0,74.0,30.16,SE,135,3.0,6.0,94,0.00,,,0.00,,2013-06-23 13:02:00,
2013-06-23 09:11:00,76.0,74.0,30.16,SSE,157,3.0,6.0,95,0.00,,,0.00,,2013-06-23 13:11:00,
2013-06-23 09:23:00,76.0,74.0,30.16,SSE,157,3.0,6.0,95,0.00,,,0.00,,2013-06-23 13:23:00,
2013-06-23 09:34:00,78.0,75.0,30.16,SSE,157,3.0,5.0,90,0.00,,,0.00,,2013-06-23 13:34:00,
2013-06-23 09:43:00,79.0,76.0,30.16,SSE,157,3.0,6.0,90,0.00,,,0.00,,2013-06-23 13:43:00,
2013-06-23 10:04:00,81.0,75.0,30.18,South,180,1.0,2.0,83,0.00,,,0.00,,2013-06-23 14:04:00,
2013-06-23 10:11:00,83.0,75.0,30.18,SE,135,1.0,5.0,76,0.00,,,0.00,,2013-06-23 14:11:00,
2013-06-23 10:22:00,83.0,73.0,30.18,SSE,157,4.0,7.0,73,0.00,,,0.00,,2013-06-23 14:22:00,
2013-06-23 10:34:00,83.0,73.0,30.18,SSE,157,4.0,7.0,73,0.00,,,0.00,,2013-06-23 14:34:00,
2013-06-23 10:44:00,86.0,74.0,30.18,East,90,4.0,7.0,67,0.00,,,0.00,,2013-06-23 14:44:00,
2013-06-23 11:05:00,87.0,74.0,30.18,NW,315,2.0,6.0,65,0.00,,,0.00,,2013-06-23 15:05:00,
2013-06-23 11:12:00,87.0,73.0,30.18,SE,135,3.0,6.0,63,0.00,,,0.00,,2013-06-23 15:12:00,
2013-06-23 11:43:00,89.0,73.0,30.19,South,180,3.0,6.0,59,0.00,,,0.00,,2013-06-23 15:43:00,
2013-06-23 12:06:00,86.0,71.0,30.18,SSW,202,3.0,5.0,62,0.00,,,0.00,,2013-06-23 16:06:00,
2013-06-23 12:12:00,85.0,71.0,30.18,South,180,3.0,6.0,63,0.00,,,0.00,,2013-06-23 16:12:00,
2013-06-23 12:36:00,86.0,71.0,30.18,SW,225,3.0,6.0,61,0.00,,,0.00,,2013-06-23 16:36:00,
2013-06-23 12:43:00,86.0,71.0,30.18,SW,225,3.0,6.0,61,0.00,,,0.00,,2013-06-23 16:43:00,
2013-06-23 12:53:00,88.0,71.0,30.19,SSE,157,2.0,7.0,58,0.00,,,0.00,,2013-06-23 16:53:00,
2013-06-23 13:05:00,89.0,70.0,30.19,WSW,247,5.0,6.0,54,0.00,,,0.00,,2013-06-23 17:05:00,
2013-06-23 13:12:00,88.0,71.0,30.19,WSW,247,4.0,11.0,58,0.00,,,0.00,,2013-06-23 17:12:00,
2013-06-23 13:33:00,88.0,72.0,30.18,West,270,2.0,5.0,59,0.00,,,0.00,,2013-06-23 17:33:00,
2013-06-23 13:43:00,88.0,72.0,30.18,West,270,2.0,5.0,59,0.00,,,0.00,,2013-06-23 17:43:00,
2013-06-23 14:01:00,90.0,71.0,30.18,SE,135,4.0,7.0,54,0.00,,,0.00,,2013-06-23 18:01:00,
2013-06-23 14:12:00,90.0,69.0,30.18,SE,135,3.0,9.0,51,0.00,,,0.00,,2013-06-23 18:12:00,
2013-06-23 14:22:00,86.0,68.0,30.19,West,270,3.0,5.0,56,0.00,,,0.00,,2013-06-23 18:22:00,
2013-06-23 14:34:00,86.0,68.0,30.19,West,270,3.0,5.0,56,0.00,,,0.00,,2013-06-23 18:34:00,
2013-06-23 14:42:00,82.0,69.0,30.18,West,270,4.0,6.0,66,0.00,,,0.00,,2013-06-23 18:42:00,
2013-06-23 15:01:00,80.0,74.0,30.18,West,270,5.0,8.0,81,0.00,,,0.00,,2013-06-23 19:01:00,
2013-06-23 15:11:00,80.0,73.0,30.18,West,270,6.0,10.0,79,0.00,,,0.00,,2013-06-23 19:11:00,
2013-06-23 15:21:00,80.0,73.0,30.18,WNW,292,3.0,9.0,79,0.00,,,0.00,,2013-06-23 19:21:00,
2013-06-23 15:32:00,80.0,74.0,30.19,NW,315,3.0,7.0,82,0.00,,,0.00,,2013-06-23 19:32:00,
2013-06-23 15:43:00,79.0,74.0,30.19,West,270,3.0,6.0,85,0.00,,,0.00,,2013-06-23 19:43:00,
2013-06-23 15:53:00,77.0,74.0,30.16,WSW,247,3.0,4.0,91,0.00,,,0.00,,2013-06-23 19:53:00,
2013-06-23 16:02:00,77.0,74.0,30.16,WSW,247,3.0,4.0,91,0.00,,,0.00,,2013-06-23 20:02:00,
2013-06-23 16:12:00,76.0,75.0,30.16,WSW,247,1.0,3.0,97,0.00,,,0.00,,2013-06-23 20:12:00,
2013-06-23 16:24:00,76.0,75.0,30.15,West,270,0.0,2.0,98,0.00,,,0.00,,2013-06-23 20:24:00,
2013-06-23 16:33:00,78.0,77.0,30.14,West,270,3.0,5.0,96,0.00,,,0.00,,2013-06-23 20:33:00,
2013-06-23 16:42:00,78.0,76.0,30.13,WNW,292,4.0,7.0,93,0.00,,,0.00,,2013-06-23 20:42:00,
2013-06-23 17:01:00,81.0,74.0,30.13,NW,315,6.0,9.0,80,0.00,,,0.00,,2013-06-23 21:01:00,
2013-06-23 17:11:00,81.0,74.0,30.13,NW,315,6.0,9.0,80,0.00,,,0.00,,2013-06-23 21:11:00,
2013-06-23 17:22:00,82.0,73.0,30.15,West,270,5.0,8.0,74,0.00,,,0.00,,2013-06-23 21:22:00,
2013-06-23 17:34:00,83.0,75.0,30.15,West,270,1.0,4.0,76,0.00,,,0.00,,2013-06-23 21:34:00,
2013-06-23 17:44:00,83.0,73.0,30.15,South,180,2.0,4.0,73,0.00,,,0.00,,2013-06-23 21:44:00,
2013-06-23 17:52:00,83.0,73.0,30.15,South,180,2.0,4.0,73,0.00,,,0.00,,2013-06-23 21:52:00,
2013-06-23 18:01:00,84.0,74.0,30.14,SE,135,0.0,0.0,71,0.00,,,0.00,,2013-06-23 22:01:00,
2013-06-23 18:12:00,83.0,73.0,30.13,WNW,292,2.0,3.0,72,0.00,,,0.00,,2013-06-23 22:12:00,
2013-06-23 18:32:00,83.0,74.0,30.13,South,180,2.0,4.0,74,0.00,,,0.00,,2013-06-23 22:32:00,
2013-06-23 18:43:00,83.0,74.0,30.13,South,180,2.0,4.0,74,0.00,,,0.00,,2013-06-23 22:43:00,
2013-06-23 18:53:00,84.0,74.0,30.13,West,270,2.0,3.0,72,0.00,,,0.00,,2013-06-23 22:53:00,
2013-06-23 19:01:00,84.0,74.0,30.13,West,270,4.0,7.0,72,0.00,,,0.00,,2013-06-23 23:01:00,
2013-06-23 19:11:00,84.0,74.0,30.13,West,270,4.0,7.0,72,0.00,,,0.00,,2013-06-23 23:11:00,
2013-06-23 19:22:00,84.0,73.0,30.13,WNW,292,2.0,6.0,70,0.00,,,0.00,,2013-06-23 23:22:00,
2013-06-23 19:33:00,84.0,73.0,30.13,WNW,292,2.0,6.0,70,0.00,,,0.00,,2013-06-23 23:33:00,
2013-06-23 19:44:00,85.0,72.0,30.13,West,270,3.0,6.0,66,0.00,,,0.00,,2013-06-23 23:44:00,
2013-06-23 20:01:00,83.0,73.0,30.13,South,180,1.0,4.0,73,0.00,,,0.00,,2013-06-24 00:01:00,
2013-06-23 20:11:00,82.0,74.0,30.13,WSW,247,1.0,2.0,76,0.00,,,0.00,,2013-06-24 00:11:00,
2013-06-23 20:33:00,81.0,75.0,30.12,South,180,0.0,1.0,82,0.00,,,0.00,,2013-06-24 00:33:00,
2013-06-23 20:42:00,81.0,75.0,30.12,South,180,0.0,1.0,82,0.00,,,0.00,,2013-06-24 00:42:00,
2013-06-23 21:02:00,79.0,75.0,30.11,SSE,157,1.0,2.0,88,0.00,,,0.00,,2013-06-24 01:02:00,
2013-06-23 21:11:00,78.0,75.0,30.11,SE,135,2.0,3.0,90,0.00,,,0.00,,2013-06-24 01:11:00,
2013-06-23 21:32:00,77.0,75.0,30.11,SE,135,1.0,2.0,93,0.00,,,0.00,,2013-06-24 01:32:00,
2013-06-23 21:42:00,77.0,75.0,30.11,SE,135,0.0,0.0,93,0.00,,,0.00,,2013-06-24 01:42:00,
2013-06-23 21:53:00,77.0,76.0,30.12,SE,135,1.0,2.0,96,0.00,,,0.00,,2013-06-24 01:53:00,
2013-06-23 22:02:00,77.0,76.0,30.12,SE,135,1.0,2.0,96,0.00,,,0.00,,2013-06-24 02:02:00,
2013-06-23 22:11:00,77.0,76.0,30.12,SE,135,1.0,2.0,96,0.00,,,0.00,,2013-06-24 02:11:00,
2013-06-23 22:22:00,77.0,76.0,30.12,SE,135,1.0,2.0,96,0.00,,,0.00,,2013-06-24 02:22:00,
2013-06-23 22:33:00,76.0,75.0,30.12,SE,135,2.0,3.0,97,0.00,,,0.00,,2013-06-24 02:33:00,
2013-06-23 22:42:00,76.0,75.0,30.12,SE,135,0.0,1.0,98,0.00,,,0.00,,2013-06-24 02:42:00,
2013-06-23 23:01:00,76.0,75.0,30.13,SE,135,1.0,2.0,97,0.00,,,0.00,,2013-06-24 03:01:00,
2013-06-23 23:11:00,76.0,75.0,30.13,SSE,157,2.0,4.0,97,0.00,,,0.00,,2013-06-24 03:11:00,
2013-06-23 23:33:00,75.0,74.0,30.13,SSE,157,1.0,2.0,97,0.00,,,0.00,,2013-06-24 03:33:00,
2013-06-23 23:43:00,75.0,74.0,30.13,SSE,157,3.0,4.0,98,0.00,,,0.00,,2013-06-24 03:43:00,
2013-06-23 23:53:00,75.0,74.0,30.13,SE,135,4.0,5.0,98,0.00,,,0.00,,2013-06-24 03:53:00,